sensor_id;sensor_type;location;lat;lon;timestamp;P1;durP1;ratioP1;P2;durP2;ratioP2
55172;SDS011;41061;52.822;6.860;2023-04-30T00:00:12;10.30;;;4.68;;
55172;SDS011;41061;52.822;6.860;2023-04-30T00:02:38;9.80;;;3.90;;
55172;SDS011;41061;52.822;6.860;2023-04-30T00:05:03;7.35;;;4.20;;
55172;SDS011;41061;52.822;6.860;2023-04-30T00:07:29;8.82;;;4.28;;
55172;SDS011;41061;52.822;6.860;2023-04-30T00:09:56;11.77;;;5.00;;
55172;SDS011;41061;52.822;6.860;2023-04-30T00:12:25;8.63;;;5.50;;
55172;SDS011;41061;52.822;6.860;2023-04-30T00:14:53;9.40;;;5.60;;
55172;SDS011;41061;52.822;6.860;2023-04-30T00:17:20;12.98;;;5.97;;
55172;SDS011;41061;52.822;6.860;2023-04-30T00:19:46;15.35;;;6.30;;
55172;SDS011;41061;52.822;6.860;2023-04-30T00:22:12;13.07;;;6.32;;
55172;SDS011;41061;52.822;6.860;2023-04-30T00:24:38;17.08;;;6.55;;
55172;SDS011;41061;52.822;6.860;2023-04-30T00:27:05;14.18;;;6.07;;
55172;SDS011;41061;52.822;6.860;2023-04-30T00:29:31;12.07;;;6.30;;
55172;SDS011;41061;52.822;6.860;2023-04-30T00:31:57;12.52;;;5.85;;
55172;SDS011;41061;52.822;6.860;2023-04-30T00:34:23;11.95;;;5.50;;
55172;SDS011;41061;52.822;6.860;2023-04-30T00:36:49;14.05;;;5.50;;
55172;SDS011;41061;52.822;6.860;2023-04-30T00:39:15;16.05;;;5.43;;
55172;SDS011;41061;52.822;6.860;2023-04-30T00:41:41;11.98;;;5.38;;
55172;SDS011;41061;52.822;6.860;2023-04-30T00:44:08;11.82;;;6.22;;
55172;SDS011;41061;52.822;6.860;2023-04-30T00:46:34;12.13;;;6.20;;
55172;SDS011;41061;52.822;6.860;2023-04-30T00:49:00;9.15;;;5.47;;
55172;SDS011;41061;52.822;6.860;2023-04-30T00:51:29;13.73;;;6.47;;
55172;SDS011;41061;52.822;6.860;2023-04-30T00:53:55;11.07;;;6.05;;
55172;SDS011;41061;52.822;6.860;2023-04-30T00:56:22;10.88;;;5.18;;
55172;SDS011;41061;52.822;6.860;2023-04-30T00:58:48;13.02;;;5.93;;
55172;SDS011;41061;52.822;6.860;2023-04-30T01:01:18;9.48;;;6.30;;
55172;SDS011;41061;52.822;6.860;2023-04-30T01:03:44;12.00;;;6.85;;
55172;SDS011;41061;52.822;6.860;2023-04-30T01:06:10;10.88;;;6.30;;
55172;SDS011;41061;52.822;6.860;2023-04-30T01:08:36;11.73;;;5.70;;
55172;SDS011;41061;52.822;6.860;2023-04-30T01:11:11;8.98;;;5.43;;
55172;SDS011;41061;52.822;6.860;2023-04-30T01:16:18;11.30;;;6.07;;
55172;SDS011;41061;52.822;6.860;2023-04-30T01:18:55;13.95;;;6.90;;
55172;SDS011;41061;52.822;6.860;2023-04-30T01:21:24;16.30;;;6.57;;
55172;SDS011;41061;52.822;6.860;2023-04-30T01:29:20;17.50;;;6.18;;
55172;SDS011;41061;52.822;6.860;2023-04-30T01:31:49;8.48;;;5.70;;
55172;SDS011;41061;52.822;6.860;2023-04-30T01:34:15;11.10;;;6.30;;
55172;SDS011;41061;52.822;6.860;2023-04-30T01:47:21;9.20;;;5.20;;
55172;SDS011;41061;52.822;6.860;2023-04-30T01:49:56;11.68;;;5.38;;
55172;SDS011;41061;52.822;6.860;2023-04-30T01:52:33;8.65;;;4.78;;
55172;SDS011;41061;52.822;6.860;2023-04-30T01:55:04;9.93;;;5.18;;
55172;SDS011;41061;52.822;6.860;2023-04-30T01:57:36;9.68;;;5.68;;
55172;SDS011;41061;52.822;6.860;2023-04-30T02:00:03;10.40;;;5.47;;
55172;SDS011;41061;52.822;6.860;2023-04-30T02:02:29;10.45;;;4.88;;
55172;SDS011;41061;52.822;6.860;2023-04-30T02:04:55;8.60;;;4.68;;
55172;SDS011;41061;52.822;6.860;2023-04-30T02:07:34;8.88;;;5.20;;
55172;SDS011;41061;52.822;6.860;2023-04-30T02:10:02;8.95;;;5.40;;
55172;SDS011;41061;52.822;6.860;2023-04-30T02:12:28;11.38;;;5.88;;
55172;SDS011;41061;52.822;6.860;2023-04-30T02:14:54;7.57;;;5.43;;
55172;SDS011;41061;52.822;6.860;2023-04-30T02:17:20;9.13;;;5.72;;
55172;SDS011;41061;52.822;6.860;2023-04-30T02:19:45;8.63;;;4.68;;
55172;SDS011;41061;52.822;6.860;2023-04-30T02:22:11;8.13;;;4.45;;
55172;SDS011;41061;52.822;6.860;2023-04-30T02:24:37;5.80;;;3.55;;
55172;SDS011;41061;52.822;6.860;2023-04-30T02:27:02;7.18;;;3.35;;
55172;SDS011;41061;52.822;6.860;2023-04-30T02:29:28;11.15;;;4.18;;
55172;SDS011;41061;52.822;6.860;2023-04-30T02:31:56;8.18;;;4.78;;
55172;SDS011;41061;52.822;6.860;2023-04-30T02:34:23;8.27;;;5.22;;
55172;SDS011;41061;52.822;6.860;2023-04-30T02:36:48;11.65;;;5.47;;
55172;SDS011;41061;52.822;6.860;2023-04-30T02:39:14;9.43;;;5.70;;
55172;SDS011;41061;52.822;6.860;2023-04-30T02:41:40;9.98;;;5.80;;
55172;SDS011;41061;52.822;6.860;2023-04-30T02:44:05;12.55;;;5.75;;
55172;SDS011;41061;52.822;6.860;2023-04-30T02:46:31;16.08;;;6.28;;
55172;SDS011;41061;52.822;6.860;2023-04-30T02:48:57;16.45;;;6.45;;
55172;SDS011;41061;52.822;6.860;2023-04-30T02:51:25;11.98;;;6.97;;
55172;SDS011;41061;52.822;6.860;2023-04-30T02:53:52;7.75;;;5.40;;
55172;SDS011;41061;52.822;6.860;2023-04-30T02:56:18;8.77;;;4.30;;
55172;SDS011;41061;52.822;6.860;2023-04-30T02:58:45;12.23;;;5.00;;
55172;SDS011;41061;52.822;6.860;2023-04-30T03:01:11;10.43;;;4.60;;
55172;SDS011;41061;52.822;6.860;2023-04-30T03:03:37;6.88;;;4.80;;
55172;SDS011;41061;52.822;6.860;2023-04-30T03:06:03;9.63;;;4.82;;
55172;SDS011;41061;52.822;6.860;2023-04-30T03:08:29;9.85;;;5.18;;
55172;SDS011;41061;52.822;6.860;2023-04-30T03:10:55;8.88;;;5.47;;
55172;SDS011;41061;52.822;6.860;2023-04-30T03:13:21;8.77;;;5.93;;
55172;SDS011;41061;52.822;6.860;2023-04-30T03:15:55;11.18;;;5.95;;
55172;SDS011;41061;52.822;6.860;2023-04-30T03:18:22;9.23;;;6.05;;
55172;SDS011;41061;52.822;6.860;2023-04-30T03:20:48;12.00;;;6.63;;
55172;SDS011;41061;52.822;6.860;2023-04-30T03:23:14;13.52;;;6.15;;
55172;SDS011;41061;52.822;6.860;2023-04-30T03:25:40;10.45;;;6.25;;
55172;SDS011;41061;52.822;6.860;2023-04-30T03:28:06;11.90;;;5.70;;
55172;SDS011;41061;52.822;6.860;2023-04-30T03:30:32;10.13;;;5.70;;
55172;SDS011;41061;52.822;6.860;2023-04-30T03:32:58;9.70;;;5.18;;
55172;SDS011;41061;52.822;6.860;2023-04-30T03:35:25;9.07;;;5.45;;
55172;SDS011;41061;52.822;6.860;2023-04-30T03:37:51;12.95;;;6.20;;
55172;SDS011;41061;52.822;6.860;2023-04-30T03:40:17;10.02;;;6.20;;
55172;SDS011;41061;52.822;6.860;2023-04-30T03:42:43;10.80;;;5.80;;
55172;SDS011;41061;52.822;6.860;2023-04-30T03:45:09;13.35;;;6.25;;
55172;SDS011;41061;52.822;6.860;2023-04-30T03:47:35;11.40;;;6.40;;
55172;SDS011;41061;52.822;6.860;2023-04-30T03:50:02;10.93;;;6.05;;
55172;SDS011;41061;52.822;6.860;2023-04-30T03:52:28;16.67;;;6.90;;
55172;SDS011;41061;52.822;6.860;2023-04-30T03:54:55;14.68;;;7.07;;
55172;SDS011;41061;52.822;6.860;2023-04-30T03:57:21;12.07;;;6.43;;
55172;SDS011;41061;52.822;6.860;2023-04-30T03:59:49;12.55;;;6.50;;
55172;SDS011;41061;52.822;6.860;2023-04-30T04:02:15;11.48;;;6.00;;
55172;SDS011;41061;52.822;6.860;2023-04-30T04:04:41;8.02;;;5.38;;
55172;SDS011;41061;52.822;6.860;2023-04-30T04:07:06;10.07;;;5.10;;
55172;SDS011;41061;52.822;6.860;2023-04-30T04:09:33;8.20;;;5.20;;
55172;SDS011;41061;52.822;6.860;2023-04-30T04:11:59;9.02;;;5.38;;
55172;SDS011;41061;52.822;6.860;2023-04-30T04:14:25;8.45;;;5.40;;
55172;SDS011;41061;52.822;6.860;2023-04-30T04:16:51;9.57;;;5.47;;
55172;SDS011;41061;52.822;6.860;2023-04-30T04:19:17;11.18;;;5.78;;
55172;SDS011;41061;52.822;6.860;2023-04-30T04:21:42;9.75;;;5.60;;
55172;SDS011;41061;52.822;6.860;2023-04-30T04:24:08;9.98;;;5.70;;
55172;SDS011;41061;52.822;6.860;2023-04-30T04:26:35;8.88;;;5.85;;
55172;SDS011;41061;52.822;6.860;2023-04-30T04:29:01;10.18;;;6.20;;
55172;SDS011;41061;52.822;6.860;2023-04-30T04:31:28;10.93;;;6.60;;
55172;SDS011;41061;52.822;6.860;2023-04-30T04:33:55;14.75;;;6.82;;
55172;SDS011;41061;52.822;6.860;2023-04-30T04:36:24;12.77;;;6.97;;
55172;SDS011;41061;52.822;6.860;2023-04-30T04:38:52;12.90;;;6.72;;
55172;SDS011;41061;52.822;6.860;2023-04-30T04:41:18;10.55;;;6.68;;
55172;SDS011;41061;52.822;6.860;2023-04-30T04:43:44;12.13;;;6.78;;
55172;SDS011;41061;52.822;6.860;2023-04-30T04:46:10;11.27;;;8.10;;
55172;SDS011;41061;52.822;6.860;2023-04-30T04:48:35;11.88;;;6.60;;
55172;SDS011;41061;52.822;6.860;2023-04-30T04:51:01;12.13;;;7.45;;
55172;SDS011;41061;52.822;6.860;2023-04-30T04:53:27;15.27;;;7.63;;
55172;SDS011;41061;52.822;6.860;2023-04-30T04:55:53;12.20;;;6.97;;
55172;SDS011;41061;52.822;6.860;2023-04-30T04:58:18;13.43;;;8.70;;
55172;SDS011;41061;52.822;6.860;2023-04-30T05:00:44;12.38;;;7.75;;
55172;SDS011;41061;52.822;6.860;2023-04-30T05:03:10;14.50;;;7.95;;
55172;SDS011;41061;52.822;6.860;2023-04-30T05:05:36;13.55;;;8.00;;
55172;SDS011;41061;52.822;6.860;2023-04-30T05:08:02;15.40;;;8.90;;
55172;SDS011;41061;52.822;6.860;2023-04-30T05:10:27;15.82;;;8.85;;
55172;SDS011;41061;52.822;6.860;2023-04-30T05:12:53;13.88;;;7.63;;
55172;SDS011;41061;52.822;6.860;2023-04-30T05:15:18;10.88;;;7.07;;
55172;SDS011;41061;52.822;6.860;2023-04-30T05:17:44;19.55;;;8.43;;
55172;SDS011;41061;52.822;6.860;2023-04-30T05:20:10;16.17;;;9.10;;
55172;SDS011;41061;52.822;6.860;2023-04-30T05:22:36;20.75;;;8.70;;
55172;SDS011;41061;52.822;6.860;2023-04-30T05:25:02;17.67;;;9.13;;
55172;SDS011;41061;52.822;6.860;2023-04-30T05:27:28;17.50;;;8.50;;
55172;SDS011;41061;52.822;6.860;2023-04-30T05:29:54;17.65;;;8.95;;
55172;SDS011;41061;52.822;6.860;2023-04-30T05:32:21;17.23;;;10.40;;
55172;SDS011;41061;52.822;6.860;2023-04-30T05:34:47;21.15;;;8.07;;
55172;SDS011;41061;52.822;6.860;2023-04-30T05:37:12;12.93;;;6.80;;
55172;SDS011;41061;52.822;6.860;2023-04-30T05:39:38;18.25;;;7.43;;
55172;SDS011;41061;52.822;6.860;2023-04-30T05:42:04;15.85;;;6.20;;
55172;SDS011;41061;52.822;6.860;2023-04-30T05:44:30;13.93;;;7.05;;
55172;SDS011;41061;52.822;6.860;2023-04-30T05:46:56;12.27;;;5.90;;
55172;SDS011;41061;52.822;6.860;2023-04-30T05:49:21;12.30;;;5.97;;
55172;SDS011;41061;52.822;6.860;2023-04-30T05:51:47;13.27;;;5.13;;
55172;SDS011;41061;52.822;6.860;2023-04-30T05:54:13;9.52;;;5.30;;
55172;SDS011;41061;52.822;6.860;2023-04-30T05:56:38;10.18;;;5.30;;
55172;SDS011;41061;52.822;6.860;2023-04-30T05:59:04;11.77;;;4.78;;
55172;SDS011;41061;52.822;6.860;2023-04-30T06:01:30;9.88;;;4.47;;
55172;SDS011;41061;52.822;6.860;2023-04-30T06:03:56;11.35;;;4.75;;
55172;SDS011;41061;52.822;6.860;2023-04-30T06:06:23;16.23;;;4.78;;
55172;SDS011;41061;52.822;6.860;2023-04-30T06:08:49;14.05;;;4.07;;
55172;SDS011;41061;52.822;6.860;2023-04-30T06:11:14;10.00;;;4.50;;
55172;SDS011;41061;52.822;6.860;2023-04-30T06:13:40;14.27;;;4.65;;
55172;SDS011;41061;52.822;6.860;2023-04-30T06:16:06;12.18;;;3.97;;
55172;SDS011;41061;52.822;6.860;2023-04-30T06:18:32;14.30;;;4.28;;
55172;SDS011;41061;52.822;6.860;2023-04-30T06:20:58;11.80;;;3.92;;
55172;SDS011;41061;52.822;6.860;2023-04-30T06:23:23;10.27;;;4.75;;
55172;SDS011;41061;52.822;6.860;2023-04-30T06:25:49;20.73;;;4.60;;
55172;SDS011;41061;52.822;6.860;2023-04-30T06:28:15;12.18;;;4.03;;
55172;SDS011;41061;52.822;6.860;2023-04-30T06:30:41;8.75;;;4.28;;
55172;SDS011;41061;52.822;6.860;2023-04-30T06:33:06;13.60;;;3.95;;
55172;SDS011;41061;52.822;6.860;2023-04-30T06:35:32;15.60;;;4.63;;
55172;SDS011;41061;52.822;6.860;2023-04-30T06:37:58;9.70;;;4.07;;
55172;SDS011;41061;52.822;6.860;2023-04-30T06:40:23;13.30;;;4.70;;
55172;SDS011;41061;52.822;6.860;2023-04-30T06:42:50;14.55;;;4.45;;
55172;SDS011;41061;52.822;6.860;2023-04-30T06:45:15;10.40;;;3.97;;
55172;SDS011;41061;52.822;6.860;2023-04-30T06:47:41;8.63;;;3.83;;
55172;SDS011;41061;52.822;6.860;2023-04-30T06:50:08;10.82;;;3.35;;
55172;SDS011;41061;52.822;6.860;2023-04-30T06:52:34;11.90;;;3.10;;
55172;SDS011;41061;52.822;6.860;2023-04-30T06:55:00;9.68;;;3.30;;
55172;SDS011;41061;52.822;6.860;2023-04-30T06:57:26;13.05;;;3.55;;
55172;SDS011;41061;52.822;6.860;2023-04-30T06:59:52;17.23;;;3.72;;
55172;SDS011;41061;52.822;6.860;2023-04-30T07:02:18;10.40;;;3.10;;
55172;SDS011;41061;52.822;6.860;2023-04-30T07:04:44;7.15;;;3.03;;
55172;SDS011;41061;52.822;6.860;2023-04-30T07:07:09;10.18;;;4.60;;
55172;SDS011;41061;52.822;6.860;2023-04-30T07:09:35;9.90;;;3.20;;
55172;SDS011;41061;52.822;6.860;2023-04-30T07:12:01;13.05;;;3.38;;
55172;SDS011;41061;52.822;6.860;2023-04-30T07:14:27;12.05;;;3.70;;
55172;SDS011;41061;52.822;6.860;2023-04-30T07:16:53;8.48;;;3.40;;
55172;SDS011;41061;52.822;6.860;2023-04-30T07:19:19;13.68;;;3.60;;
55172;SDS011;41061;52.822;6.860;2023-04-30T07:21:44;4.95;;;2.40;;
55172;SDS011;41061;52.822;6.860;2023-04-30T07:24:10;8.68;;;2.65;;
55172;SDS011;41061;52.822;6.860;2023-04-30T07:26:36;10.07;;;2.55;;
55172;SDS011;41061;52.822;6.860;2023-04-30T07:29:02;14.15;;;3.67;;
55172;SDS011;41061;52.822;6.860;2023-04-30T07:31:28;10.77;;;3.05;;
55172;SDS011;41061;52.822;6.860;2023-04-30T07:33:54;12.73;;;2.85;;
55172;SDS011;41061;52.822;6.860;2023-04-30T07:36:20;13.88;;;3.03;;
55172;SDS011;41061;52.822;6.860;2023-04-30T07:38:46;8.45;;;3.22;;
55172;SDS011;41061;52.822;6.860;2023-04-30T07:41:12;12.93;;;4.28;;
55172;SDS011;41061;52.822;6.860;2023-04-30T07:43:38;9.02;;;2.97;;
55172;SDS011;41061;52.822;6.860;2023-04-30T07:46:04;8.95;;;3.10;;
55172;SDS011;41061;52.822;6.860;2023-04-30T07:48:30;7.75;;;2.97;;
55172;SDS011;41061;52.822;6.860;2023-04-30T07:50:55;15.63;;;3.65;;
55172;SDS011;41061;52.822;6.860;2023-04-30T07:53:24;9.70;;;3.25;;
55172;SDS011;41061;52.822;6.860;2023-04-30T07:55:50;14.23;;;2.55;;
55172;SDS011;41061;52.822;6.860;2023-04-30T07:58:16;13.00;;;2.67;;
55172;SDS011;41061;52.822;6.860;2023-04-30T08:00:41;14.43;;;2.60;;
55172;SDS011;41061;52.822;6.860;2023-04-30T08:03:07;7.75;;;2.42;;
55172;SDS011;41061;52.822;6.860;2023-04-30T08:05:33;11.85;;;3.35;;
55172;SDS011;41061;52.822;6.860;2023-04-30T08:07:59;15.30;;;2.80;;
55172;SDS011;41061;52.822;6.860;2023-04-30T08:10:25;12.48;;;3.17;;
55172;SDS011;41061;52.822;6.860;2023-04-30T08:12:50;13.95;;;3.72;;
55172;SDS011;41061;52.822;6.860;2023-04-30T08:15:17;13.57;;;2.58;;
55172;SDS011;41061;52.822;6.860;2023-04-30T08:17:46;15.50;;;3.00;;
55172;SDS011;41061;52.822;6.860;2023-04-30T08:20:15;7.78;;;2.38;;
55172;SDS011;41061;52.822;6.860;2023-04-30T08:22:41;16.83;;;3.70;;
55172;SDS011;41061;52.822;6.860;2023-04-30T08:25:09;10.40;;;2.53;;
55172;SDS011;41061;52.822;6.860;2023-04-30T08:27:36;14.45;;;2.83;;
55172;SDS011;41061;52.822;6.860;2023-04-30T08:30:02;13.63;;;3.25;;
55172;SDS011;41061;52.822;6.860;2023-04-30T08:32:28;12.13;;;3.50;;
55172;SDS011;41061;52.822;6.860;2023-04-30T08:34:54;13.27;;;2.60;;
55172;SDS011;41061;52.822;6.860;2023-04-30T08:37:20;12.75;;;2.78;;
55172;SDS011;41061;52.822;6.860;2023-04-30T08:39:46;9.35;;;2.88;;
55172;SDS011;41061;52.822;6.860;2023-04-30T08:42:13;16.10;;;2.97;;
55172;SDS011;41061;52.822;6.860;2023-04-30T08:44:39;10.55;;;2.38;;
55172;SDS011;41061;52.822;6.860;2023-04-30T08:47:07;9.95;;;2.15;;
55172;SDS011;41061;52.822;6.860;2023-04-30T08:49:37;7.10;;;2.13;;
55172;SDS011;41061;52.822;6.860;2023-04-30T08:52:03;10.18;;;2.20;;
55172;SDS011;41061;52.822;6.860;2023-04-30T08:54:29;12.07;;;2.70;;
55172;SDS011;41061;52.822;6.860;2023-04-30T08:56:58;12.32;;;2.53;;
55172;SDS011;41061;52.822;6.860;2023-04-30T08:59:24;8.40;;;2.25;;
55172;SDS011;41061;52.822;6.860;2023-04-30T09:01:50;8.82;;;2.65;;
55172;SDS011;41061;52.822;6.860;2023-04-30T09:04:15;8.63;;;2.00;;
55172;SDS011;41061;52.822;6.860;2023-04-30T09:06:42;10.63;;;2.10;;
55172;SDS011;41061;52.822;6.860;2023-04-30T09:09:11;9.35;;;2.03;;
55172;SDS011;41061;52.822;6.860;2023-04-30T09:11:39;9.55;;;2.10;;
55172;SDS011;41061;52.822;6.860;2023-04-30T09:14:06;6.70;;;1.90;;
55172;SDS011;41061;52.822;6.860;2023-04-30T09:17:05;7.28;;;2.22;;
55172;SDS011;41061;52.822;6.860;2023-04-30T09:19:28;10.18;;;2.03;;
55172;SDS011;41061;52.822;6.860;2023-04-30T09:21:55;10.57;;;2.00;;
55172;SDS011;41061;52.822;6.860;2023-04-30T09:24:21;9.43;;;2.58;;
55172;SDS011;41061;52.822;6.860;2023-04-30T09:26:47;8.55;;;2.40;;
55172;SDS011;41061;52.822;6.860;2023-04-30T09:29:14;7.90;;;2.00;;
55172;SDS011;41061;52.822;6.860;2023-04-30T09:31:47;10.52;;;2.80;;
55172;SDS011;41061;52.822;6.860;2023-04-30T09:34:13;11.90;;;2.25;;
55172;SDS011;41061;52.822;6.860;2023-04-30T09:36:51;9.55;;;2.00;;
55172;SDS011;41061;52.822;6.860;2023-04-30T09:39:19;7.15;;;2.75;;
55172;SDS011;41061;52.822;6.860;2023-04-30T09:41:45;9.45;;;2.95;;
55172;SDS011;41061;52.822;6.860;2023-04-30T09:44:35;17.10;;;2.42;;
55172;SDS011;41061;52.822;6.860;2023-04-30T09:46:59;7.72;;;2.25;;
55172;SDS011;41061;52.822;6.860;2023-04-30T09:49:25;5.90;;;1.80;;
55172;SDS011;41061;52.822;6.860;2023-04-30T09:51:58;9.35;;;2.53;;
55172;SDS011;41061;52.822;6.860;2023-04-30T09:54:29;4.82;;;1.75;;
55172;SDS011;41061;52.822;6.860;2023-04-30T09:56:56;7.97;;;2.20;;
55172;SDS011;41061;52.822;6.860;2023-04-30T09:59:27;4.60;;;1.90;;
55172;SDS011;41061;52.822;6.860;2023-04-30T10:01:59;9.40;;;2.00;;
55172;SDS011;41061;52.822;6.860;2023-04-30T10:04:32;9.20;;;1.77;;
55172;SDS011;41061;52.822;6.860;2023-04-30T10:09:35;8.68;;;1.80;;
55172;SDS011;41061;52.822;6.860;2023-04-30T10:12:09;5.47;;;1.60;;
55172;SDS011;41061;52.822;6.860;2023-04-30T10:14:46;6.15;;;1.90;;
55172;SDS011;41061;52.822;6.860;2023-04-30T10:17:17;7.63;;;1.95;;
55172;SDS011;41061;52.822;6.860;2023-04-30T10:19:45;5.72;;;1.65;;
55172;SDS011;41061;52.822;6.860;2023-04-30T10:22:13;10.88;;;1.85;;
55172;SDS011;41061;52.822;6.860;2023-04-30T10:24:43;8.18;;;2.20;;
55172;SDS011;41061;52.822;6.860;2023-04-30T10:27:10;8.57;;;2.78;;
55172;SDS011;41061;52.822;6.860;2023-04-30T10:29:36;9.43;;;2.30;;
55172;SDS011;41061;52.822;6.860;2023-04-30T10:32:02;8.65;;;2.80;;
55172;SDS011;41061;52.822;6.860;2023-04-30T10:37:05;5.22;;;2.40;;
55172;SDS011;41061;52.822;6.860;2023-04-30T10:39:35;6.43;;;2.20;;
55172;SDS011;41061;52.822;6.860;2023-04-30T10:42:03;6.68;;;2.17;;
55172;SDS011;41061;52.822;6.860;2023-04-30T10:44:33;5.82;;;2.45;;
55172;SDS011;41061;52.822;6.860;2023-04-30T10:47:01;7.90;;;2.55;;
55172;SDS011;41061;52.822;6.860;2023-04-30T10:49:28;12.98;;;2.70;;
55172;SDS011;41061;52.822;6.860;2023-04-30T10:51:57;12.85;;;2.75;;
55172;SDS011;41061;52.822;6.860;2023-04-30T10:54:25;9.07;;;2.88;;
55172;SDS011;41061;52.822;6.860;2023-04-30T10:57:14;7.43;;;2.90;;
55172;SDS011;41061;52.822;6.860;2023-04-30T10:59:42;5.97;;;2.30;;
55172;SDS011;41061;52.822;6.860;2023-04-30T11:02:14;9.38;;;2.22;;
55172;SDS011;41061;52.822;6.860;2023-04-30T11:10:17;6.47;;;2.40;;
55172;SDS011;41061;52.822;6.860;2023-04-30T11:12:50;5.57;;;2.10;;
55172;SDS011;41061;52.822;6.860;2023-04-30T11:15:17;6.50;;;2.70;;
55172;SDS011;41061;52.822;6.860;2023-04-30T11:17:50;6.55;;;2.40;;
55172;SDS011;41061;52.822;6.860;2023-04-30T11:20:22;5.22;;;2.35;;
55172;SDS011;41061;52.822;6.860;2023-04-30T11:25:42;5.65;;;2.10;;
55172;SDS011;41061;52.822;6.860;2023-04-30T11:28:16;4.72;;;1.90;;
55172;SDS011;41061;52.822;6.860;2023-04-30T11:33:17;4.82;;;1.83;;
55172;SDS011;41061;52.822;6.860;2023-04-30T11:35:43;7.63;;;2.42;;
55172;SDS011;41061;52.822;6.860;2023-04-30T11:38:13;5.68;;;2.83;;
55172;SDS011;41061;52.822;6.860;2023-04-30T11:40:44;8.63;;;2.20;;
55172;SDS011;41061;52.822;6.860;2023-04-30T11:43:20;4.25;;;1.77;;
55172;SDS011;41061;52.822;6.860;2023-04-30T11:48:36;5.32;;;2.28;;
55172;SDS011;41061;52.822;6.860;2023-04-30T11:51:21;5.03;;;2.95;;
55172;SDS011;41061;52.822;6.860;2023-04-30T11:53:51;8.45;;;2.28;;
55172;SDS011;41061;52.822;6.860;2023-04-30T11:56:21;6.35;;;2.35;;
55172;SDS011;41061;52.822;6.860;2023-04-30T11:58:48;10.30;;;2.40;;
55172;SDS011;41061;52.822;6.860;2023-04-30T12:01:17;7.22;;;2.63;;
55172;SDS011;41061;52.822;6.860;2023-04-30T12:03:45;4.20;;;2.20;;
55172;SDS011;41061;52.822;6.860;2023-04-30T12:06:22;7.10;;;2.20;;
55172;SDS011;41061;52.822;6.860;2023-04-30T12:08:53;10.23;;;2.47;;
55172;SDS011;41061;52.822;6.860;2023-04-30T12:11:30;5.85;;;2.17;;
55172;SDS011;41061;52.822;6.860;2023-04-30T12:16:26;9.07;;;2.10;;
55172;SDS011;41061;52.822;6.860;2023-04-30T12:18:53;6.78;;;2.17;;
55172;SDS011;41061;52.822;6.860;2023-04-30T12:21:20;5.22;;;2.20;;
55172;SDS011;41061;52.822;6.860;2023-04-30T12:23:47;7.78;;;2.28;;
55172;SDS011;41061;52.822;6.860;2023-04-30T12:26:12;9.05;;;3.55;;
55172;SDS011;41061;52.822;6.860;2023-04-30T12:28:38;4.28;;;2.28;;
55172;SDS011;41061;52.822;6.860;2023-04-30T12:31:04;4.57;;;2.13;;
55172;SDS011;41061;52.822;6.860;2023-04-30T12:33:30;5.93;;;2.70;;
55172;SDS011;41061;52.822;6.860;2023-04-30T12:35:56;5.70;;;2.78;;
55172;SDS011;41061;52.822;6.860;2023-04-30T12:38:23;7.28;;;2.45;;
55172;SDS011;41061;52.822;6.860;2023-04-30T12:40:49;8.85;;;2.47;;
55172;SDS011;41061;52.822;6.860;2023-04-30T12:43:15;5.82;;;2.15;;
55172;SDS011;41061;52.822;6.860;2023-04-30T12:48:19;7.80;;;2.20;;
55172;SDS011;41061;52.822;6.860;2023-04-30T12:50:57;6.82;;;2.40;;
55172;SDS011;41061;52.822;6.860;2023-04-30T12:53:26;4.65;;;2.25;;
55172;SDS011;41061;52.822;6.860;2023-04-30T12:56:08;7.45;;;2.28;;
55172;SDS011;41061;52.822;6.860;2023-04-30T12:58:45;5.80;;;2.53;;
55172;SDS011;41061;52.822;6.860;2023-04-30T13:01:17;5.03;;;1.77;;
55172;SDS011;41061;52.822;6.860;2023-04-30T13:03:48;7.88;;;1.98;;
55172;SDS011;41061;52.822;6.860;2023-04-30T13:06:14;4.57;;;2.13;;
55172;SDS011;41061;52.822;6.860;2023-04-30T13:08:40;2.13;;;1.50;;
55172;SDS011;41061;52.822;6.860;2023-04-30T13:11:06;2.03;;;1.33;;
55172;SDS011;41061;52.822;6.860;2023-04-30T13:13:31;3.60;;;1.63;;
55172;SDS011;41061;52.822;6.860;2023-04-30T13:15:58;4.70;;;1.95;;
55172;SDS011;41061;52.822;6.860;2023-04-30T13:18:23;4.53;;;1.77;;
55172;SDS011;41061;52.822;6.860;2023-04-30T13:20:49;4.93;;;1.88;;
55172;SDS011;41061;52.822;6.860;2023-04-30T13:23:16;5.82;;;1.90;;
55172;SDS011;41061;52.822;6.860;2023-04-30T13:25:42;5.80;;;1.90;;
55172;SDS011;41061;52.822;6.860;2023-04-30T13:28:08;3.63;;;1.45;;
55172;SDS011;41061;52.822;6.860;2023-04-30T13:30:34;7.05;;;1.80;;
55172;SDS011;41061;52.822;6.860;2023-04-30T13:32:59;5.60;;;2.00;;
55172;SDS011;41061;52.822;6.860;2023-04-30T13:35:25;6.00;;;2.00;;
55172;SDS011;41061;52.822;6.860;2023-04-30T13:37:52;6.95;;;2.38;;
55172;SDS011;41061;52.822;6.860;2023-04-30T13:40:18;5.45;;;1.65;;
55172;SDS011;41061;52.822;6.860;2023-04-30T13:42:45;5.07;;;1.63;;
55172;SDS011;41061;52.822;6.860;2023-04-30T13:45:11;3.97;;;1.90;;
55172;SDS011;41061;52.822;6.860;2023-04-30T13:47:37;3.83;;;1.70;;
55172;SDS011;41061;52.822;6.860;2023-04-30T13:50:04;3.78;;;1.90;;
55172;SDS011;41061;52.822;6.860;2023-04-30T13:52:31;4.63;;;1.92;;
55172;SDS011;41061;52.822;6.860;2023-04-30T13:54:56;5.53;;;2.10;;
55172;SDS011;41061;52.822;6.860;2023-04-30T13:57:25;6.00;;;2.10;;
55172;SDS011;41061;52.822;6.860;2023-04-30T13:59:54;6.95;;;1.80;;
55172;SDS011;41061;52.822;6.860;2023-04-30T14:02:20;6.35;;;1.95;;
55172;SDS011;41061;52.822;6.860;2023-04-30T14:04:45;4.25;;;1.80;;
55172;SDS011;41061;52.822;6.860;2023-04-30T14:07:11;5.93;;;1.58;;
55172;SDS011;41061;52.822;6.860;2023-04-30T14:09:37;4.32;;;1.50;;
55172;SDS011;41061;52.822;6.860;2023-04-30T14:12:03;4.50;;;1.30;;
55172;SDS011;41061;52.822;6.860;2023-04-30T14:14:31;4.57;;;1.60;;
55172;SDS011;41061;52.822;6.860;2023-04-30T14:16:57;3.88;;;1.60;;
55172;SDS011;41061;52.822;6.860;2023-04-30T14:19:23;6.40;;;1.75;;
55172;SDS011;41061;52.822;6.860;2023-04-30T14:21:49;4.18;;;1.48;;
55172;SDS011;41061;52.822;6.860;2023-04-30T14:24:15;5.20;;;1.60;;
55172;SDS011;41061;52.822;6.860;2023-04-30T14:26:41;3.55;;;1.30;;
55172;SDS011;41061;52.822;6.860;2023-04-30T14:29:07;2.85;;;1.38;;
55172;SDS011;41061;52.822;6.860;2023-04-30T14:31:33;4.95;;;1.60;;
55172;SDS011;41061;52.822;6.860;2023-04-30T14:33:58;4.70;;;1.50;;
55172;SDS011;41061;52.822;6.860;2023-04-30T14:36:24;2.85;;;1.23;;
55172;SDS011;41061;52.822;6.860;2023-04-30T14:38:51;6.22;;;1.67;;
55172;SDS011;41061;52.822;6.860;2023-04-30T14:41:17;4.53;;;1.40;;
55172;SDS011;41061;52.822;6.860;2023-04-30T14:43:43;3.75;;;1.92;;
55172;SDS011;41061;52.822;6.860;2023-04-30T14:46:08;4.47;;;1.80;;
55172;SDS011;41061;52.822;6.860;2023-04-30T14:48:37;3.30;;;1.23;;
55172;SDS011;41061;52.822;6.860;2023-04-30T14:51:03;2.60;;;1.00;;
55172;SDS011;41061;52.822;6.860;2023-04-30T14:53:28;5.28;;;1.30;;
55172;SDS011;41061;52.822;6.860;2023-04-30T14:55:54;2.55;;;1.30;;
55172;SDS011;41061;52.822;6.860;2023-04-30T14:58:20;4.55;;;1.00;;
55172;SDS011;41061;52.822;6.860;2023-04-30T15:00:46;3.55;;;1.42;;
55172;SDS011;41061;52.822;6.860;2023-04-30T15:03:12;5.00;;;1.23;;
55172;SDS011;41061;52.822;6.860;2023-04-30T15:05:39;3.08;;;1.50;;
55172;SDS011;41061;52.822;6.860;2023-04-30T15:08:05;3.20;;;1.35;;
55172;SDS011;41061;52.822;6.860;2023-04-30T15:10:31;4.18;;;1.33;;
55172;SDS011;41061;52.822;6.860;2023-04-30T15:12:57;2.53;;;1.00;;
55172;SDS011;41061;52.822;6.860;2023-04-30T15:15:22;3.92;;;1.08;;
55172;SDS011;41061;52.822;6.860;2023-04-30T15:18:01;4.35;;;1.30;;
55172;SDS011;41061;52.822;6.860;2023-04-30T15:20:28;4.65;;;1.42;;
55172;SDS011;41061;52.822;6.860;2023-04-30T15:22:53;3.88;;;1.40;;